Time;durP1;ratioP1;P1;durP2;ratioP2;P2;SDS_P1;SDS_P2;PMS_P1;PMS_P2;Temp;Humidity;BMP_temperature;BMP_pressure;BME280_temperature;BME280_humidity;BME280_pressure;Samples;Min_cycle;Max_cycle;Signal;HPM_P1;HPM_P2
2022/11/18 00:01:12;;;;;;;7.32;4.18;;;6.30;99.90;;;;;;5077740;28;20079;-80
2022/11/18 00:03:40;;;;;;;8.27;4.75;;;6.20;99.90;;;;;;5116405;28;20063;-80
2022/11/18 00:06:10;;;;;;;7.80;4.38;;;6.20;99.90;;;;;;5131212;28;20047;-81
2022/11/18 00:08:37;;;;;;;9.55;4.75;;;6.20;99.90;;;;;;5131595;28;20552;-81
2022/11/18 00:11:08;;;;;;;8.55;4.30;;;6.20;99.90;;;;;;5084611;28;20031;-80
2022/11/18 00:16:22;;;;;;;10.75;4.80;;;6.20;99.90;;;;;;5130905;28;20048;-80
2022/11/18 00:18:49;;;;;;;8.80;5.00;;;6.20;99.90;;;;;;5111500;28;20123;-80
2022/11/18 00:21:18;;;;;;;9.00;4.70;;;6.20;99.90;;;;;;5093940;28;20119;-80
2022/11/18 00:23:47;;;;;;;9.93;4.55;;;6.10;99.90;;;;;;5074890;28;20035;-80
2022/11/18 00:26:14;;;;;;;10.88;5.20;;;6.20;99.90;;;;;;5093960;28;20031;-80
2022/11/18 00:28:41;;;;;;;8.50;5.03;;;6.10;99.90;;;;;;5097177;28;20039;-80
2022/11/18 00:31:10;;;;;;;10.60;5.03;;;6.10;99.90;;;;;;5065108;28;20036;-80
2022/11/18 00:33:38;;;;;;;10.95;5.45;;;6.10;99.90;;;;;;5094242;28;20492;-80
2022/11/18 00:36:07;;;;;;;10.80;5.50;;;6.10;99.90;;;;;;5094135;28;20080;-80
2022/11/18 00:38:34;;;;;;;10.00;5.40;;;6.10;99.90;;;;;;5111586;28;20074;-80
2022/11/18 00:41:01;;;;;;;10.57;5.43;;;6.20;99.90;;;;;;5089951;28;20071;-80
2022/11/18 00:43:29;;;;;;;10.77;5.32;;;6.20;99.90;;;;;;5112717;28;20107;-80
2022/11/18 00:45:56;;;;;;;9.70;4.78;;;6.20;99.90;;;;;;5113227;28;20051;-80
2022/11/18 00:48:23;;;;;;;12.27;5.65;;;6.10;99.90;;;;;;5103245;28;20142;-80
2022/11/18 00:50:53;;;;;;;9.60;5.45;;;6.60;99.90;;;;;;5098976;28;20035;-80
2022/11/18 00:53:21;;;;;;;11.40;5.03;;;6.10;99.90;;;;;;5113299;28;20039;-80
2022/11/18 00:55:48;;;;;;;9.82;5.40;;;6.10;99.90;;;;;;5113836;28;20078;-80
2022/11/18 00:58:15;;;;;;;8.63;4.80;;;6.10;99.90;;;;;;5130251;28;20077;-80
2022/11/18 01:00:44;;;;;;;9.20;4.97;;;6.10;99.90;;;;;;5096365;28;20039;-80
2022/11/18 01:03:11;;;;;;;10.48;5.45;;;6.10;99.90;;;;;;5110056;28;20185;-80
2022/11/18 01:05:38;;;;;;;10.25;4.93;;;6.10;99.90;;;;;;5113121;28;20044;-81
2022/11/18 01:08:06;;;;;;;10.55;5.55;;;6.10;99.90;;;;;;5087499;28;20036;-80
2022/11/18 01:10:34;;;;;;;10.15;5.10;;;6.10;99.90;;;;;;5076884;28;20039;-80
2022/11/18 01:13:18;;;;;;;9.52;4.88;;;6.10;99.90;;;;;;5081573;28;20043;-80
2022/11/18 01:15:52;;;;;;;9.65;5.40;;;6.10;99.90;;;;;;5096014;28;20047;-80
2022/11/18 01:18:22;;;;;;;12.00;5.60;;;6.10;99.90;;;;;;5109504;28;20511;-80
2022/11/18 01:20:49;;;;;;;10.52;5.00;;;6.00;99.90;;;;;;5092920;28;20093;-80
2022/11/18 01:23:17;;;;;;;10.77;5.38;;;6.10;99.90;;;;;;5093037;28;20067;-80
2022/11/18 01:25:46;;;;;;;11.75;5.05;;;6.10;99.90;;;;;;5096535;28;20042;-80
2022/11/18 01:28:13;;;;;;;13.32;6.32;;;6.00;99.90;;;;;;5098325;28;20549;-80
2022/11/18 01:30:40;;;;;;;10.10;5.68;;;6.10;99.90;;;;;;5102037;28;20040;-80
2022/11/18 01:33:07;;;;;;;13.82;5.82;;;6.00;99.90;;;;;;5093002;28;20072;-81
2022/11/18 01:35:35;;;;;;;11.60;5.65;;;6.00;99.90;;;;;;5075973;28;20505;-80
2022/11/18 01:38:03;;;;;;;10.63;5.85;;;6.00;99.90;;;;;;5092618;28;20040;-80
2022/11/18 01:40:31;;;;;;;11.13;5.28;;;6.00;99.90;;;;;;5104393;28;20043;-80
2022/11/18 01:42:58;;;;;;;14.73;6.47;;;6.40;99.90;;;;;;5101025;28;20380;-80
2022/11/18 01:45:42;;;;;;;11.80;6.20;;;6.20;99.90;;;;;;5083767;28;20097;-80
2022/11/18 01:48:09;;;;;;;12.48;6.72;;;6.00;99.90;;;;;;5102383;28;20112;-80
2022/11/18 01:50:40;;;;;;;12.82;6.70;;;6.00;99.90;;;;;;5112157;28;20032;-80
2022/11/18 01:53:13;;;;;;;15.15;6.90;;;6.00;99.90;;;;;;5093202;28;20044;-79
2022/11/18 01:55:45;;;;;;;13.95;6.60;;;5.90;99.90;;;;;;5112856;28;20039;-80
2022/11/18 01:58:20;;;;;;;12.55;6.07;;;5.90;99.90;;;;;;5112199;28;20043;-80
2022/11/18 02:00:47;;;;;;;15.35;7.30;;;5.90;99.90;;;;;;5112596;28;20407;-80
2022/11/18 02:03:15;;;;;;;10.23;5.65;;;5.90;99.90;;;;;;5096057;28;20038;-80
2022/11/18 02:05:45;;;;;;;11.80;6.05;;;5.90;99.90;;;;;;5094822;28;20106;-80
2022/11/18 02:08:13;;;;;;;12.75;6.28;;;5.90;99.90;;;;;;5094036;28;20040;-79
2022/11/18 02:10:39;;;;;;;13.60;6.32;;;5.90;99.90;;;;;;5092613;28;20047;-80
2022/11/18 02:13:06;;;;;;;16.08;6.20;;;6.30;99.90;;;;;;5069492;28;20032;-80
2022/11/18 02:15:45;;;;;;;13.00;6.40;;;5.80;99.90;;;;;;5095645;28;20032;-80
2022/11/18 02:18:46;;;;;;;13.25;6.47;;;5.80;99.90;;;;;;5128488;28;20039;-80
2022/11/18 02:21:28;;;;;;;12.25;6.18;;;5.80;99.90;;;;;;5097099;28;20033;-80
2022/11/18 02:23:55;;;;;;;12.75;6.00;;;5.80;99.90;;;;;;5092800;28;20032;-80
2022/11/18 02:26:40;;;;;;;11.90;6.40;;;5.80;99.90;;;;;;5109456;28;20028;-80
2022/11/18 02:29:13;;;;;;;13.52;6.90;;;5.80;99.90;;;;;;5109419;28;20040;-80
2022/11/18 02:31:45;;;;;;;11.07;5.90;;;5.80;99.90;;;;;;5101009;28;20452;-80
2022/11/18 02:34:36;;;;;;;15.80;7.18;;;5.80;99.90;;;;;;5101923;28;20821;-80
2022/11/18 02:37:11;;;;;;;12.55;6.78;;;5.80;99.90;;;;;;5103646;28;20063;-80
2022/11/18 02:39:46;;;;;;;11.00;5.43;;;5.80;99.90;;;;;;5108887;28;20044;-80
2022/11/18 02:42:15;;;;;;;10.23;5.93;;;5.80;99.90;;;;;;5125921;28;20096;-80
2022/11/18 02:44:46;;;;;;;12.38;6.00;;;5.80;99.90;;;;;;5099331;28;20052;-80
2022/11/18 02:47:15;;;;;;;12.05;6.75;;;5.80;99.90;;;;;;5113020;28;20545;-80
2022/11/18 02:49:54;;;;;;;13.48;6.38;;;5.80;99.90;;;;;;5098827;28;20394;-80
2022/11/18 02:52:22;;;;;;;12.27;6.55;;;5.80;99.90;;;;;;5109717;28;20443;-80
2022/11/18 02:54:50;;;;;;;13.82;6.93;;;5.70;99.90;;;;;;5092001;28;20035;-80
2022/11/18 02:57:20;;;;;;;14.60;7.18;;;5.70;99.90;;;;;;5107427;28;20050;-80
2022/11/18 02:59:47;;;;;;;12.48;6.93;;;5.80;99.90;;;;;;5095169;28;20051;-80
2022/11/18 03:02:22;;;;;;;15.40;7.25;;;6.00;99.90;;;;;;5095778;28;20072;-80
2022/11/18 03:04:53;;;;;;;13.17;6.90;;;5.80;99.90;;;;;;5111651;28;20074;-80
2022/11/18 03:07:33;;;;;;;12.07;6.35;;;5.80;99.90;;;;;;5097575;28;20035;-80
2022/11/18 03:10:01;;;;;;;11.90;6.95;;;5.70;99.90;;;;;;5121885;28;20040;-80
2022/11/18 03:12:49;;;;;;;15.50;6.70;;;5.80;99.90;;;;;;5079194;28;20079;-80
2022/11/18 03:15:22;;;;;;;13.85;6.65;;;5.80;99.90;;;;;;5127236;28;20461;-80
2022/11/18 03:18:15;;;;;;;22.17;7.88;;;5.80;99.90;;;;;;5110578;28;20122;-80
2022/11/18 03:20:49;;;;;;;12.73;6.78;;;5.80;99.90;;;;;;5097921;28;20116;-80
2022/11/18 03:23:23;;;;;;;13.27;6.97;;;6.20;99.90;;;;;;5111575;28;20412;-80
2022/11/18 03:26:12;;;;;;;12.63;7.10;;;5.70;99.90;;;;;;5115086;28;20044;-80
2022/11/18 03:28:57;;;;;;;15.43;7.32;;;5.70;99.90;;;;;;5106475;28;20040;-80
2022/11/18 03:31:32;;;;;;;12.50;6.97;;;5.70;99.90;;;;;;5107314;28;20044;-81
2022/11/18 03:34:17;;;;;;;13.90;6.90;;;5.70;99.90;;;;;;5109522;28;20042;-80
2022/11/18 03:36:49;;;;;;;12.80;6.77;;;5.80;99.90;;;;;;5128417;28;20039;-81
2022/11/18 03:39:18;;;;;;;14.57;7.18;;;5.70;99.90;;;;;;5094861;28;20139;-80
2022/11/18 03:41:57;;;;;;;12.82;6.68;;;6.00;99.90;;;;;;5096095;28;20072;-80
2022/11/18 03:44:29;;;;;;;14.27;6.80;;;6.10;99.90;;;;;;5111707;28;20051;-80
2022/11/18 03:47:04;;;;;;;15.13;7.00;;;5.70;99.90;;;;;;5114995;28;20107;-80
2022/11/18 03:49:41;;;;;;;11.75;6.78;;;6.10;99.90;;;;;;5102970;28;20051;-81
2022/11/18 03:52:14;;;;;;;13.07;5.88;;;5.70;99.90;;;;;;5115252;28;20043;-81
2022/11/18 03:54:44;;;;;;;13.05;6.95;;;5.60;99.90;;;;;;5114621;28;20047;-80
2022/11/18 03:57:16;;;;;;;12.02;5.97;;;5.70;99.90;;;;;;5131736;28;20044;-80
2022/11/18 04:00:01;;;;;;;15.05;6.43;;;6.30;99.90;;;;;;5129884;28;20130;-80
2022/11/18 04:02:29;;;;;;;16.60;5.35;;;5.70;99.90;;;;;;5114482;28;20078;-80
2022/11/18 04:04:57;;;;;;;12.38;6.45;;;6.10;99.90;;;;;;5109266;28;20523;-80
2022/11/18 04:07:33;;;;;;;11.25;5.70;;;6.00;99.90;;;;;;5094761;28;20035;-80
2022/11/18 04:10:07;;;;;;;12.35;5.47;;;5.60;99.90;;;;;;5126660;28;20058;-80
2022/11/18 04:12:38;;;;;;;11.27;5.60;;;5.60;99.90;;;;;;5111555;28;20042;-80
2022/11/18 04:15:05;;;;;;;10.75;5.47;;;5.60;99.90;;;;;;5093848;28;20408;-80
2022/11/18 04:17:32;;;;;;;9.95;5.18;;;5.60;99.90;;;;;;5078134;28;20378;-80
2022/11/18 04:19:58;;;;;;;12.65;5.45;;;5.60;99.90;;;;;;5079149;28;20032;-80
2022/11/18 04:22:25;;;;;;;13.55;5.90;;;5.70;99.90;;;;;;5081432;28;20118;-80
2022/11/18 04:24:52;;;;;;;10.65;5.43;;;5.60;99.90;;;;;;5088740;28;20032;-80
2022/11/18 04:27:18;;;;;;;11.23;5.60;;;5.60;99.90;;;;;;5081158;28;20188;-80
2022/11/18 04:29:45;;;;;;;10.80;5.28;;;5.60;99.90;;;;;;5102963;28;20040;-80
2022/11/18 04:32:12;;;;;;;10.55;4.78;;;5.60;99.90;;;;;;5081025;28;20073;-80
2022/11/18 04:34:38;;;;;;;14.38;5.32;;;5.60;99.90;;;;;;5078438;28;20039;-80
2022/11/18 04:37:05;;;;;;;10.88;5.00;;;5.60;99.90;;;;;;5082627;28;20092;-80
2022/11/18 04:39:32;;;;;;;9.80;5.50;;;5.90;99.90;;;;;;5113631;28;20051;-80
2022/11/18 04:41:59;;;;;;;12.27;5.80;;;5.60;99.90;;;;;;5080788;28;20036;-80
2022/11/18 04:44:32;;;;;;;10.05;4.95;;;5.60;99.90;;;;;;5060676;28;20051;-80
2022/11/18 04:47:04;;;;;;;13.82;5.40;;;5.60;99.90;;;;;;5109998;28;20044;-80
2022/11/18 04:49:32;;;;;;;9.98;4.47;;;5.50;99.90;;;;;;5110224;28;20040;-80
2022/11/18 04:51:59;;;;;;;10.68;4.55;;;5.50;99.90;;;;;;5095078;28;20036;-80
2022/11/18 04:54:27;;;;;;;12.20;5.25;;;6.20;99.90;;;;;;5091994;28;20063;-80
2022/11/18 04:56:54;;;;;;;10.20;5.13;;;5.50;99.90;;;;;;5093890;28;20047;-80
2022/11/18 04:59:24;;;;;;;10.48;5.22;;;5.50;99.90;;;;;;5093640;28;20036;-80
2022/11/18 05:01:52;;;;;;;9.90;4.85;;;5.60;99.90;;;;;;5093592;28;20067;-80
2022/11/18 05:04:23;;;;;;;11.15;5.00;;;5.50;99.90;;;;;;5093536;28;20043;-80
2022/11/18 05:06:51;;;;;;;14.13;5.22;;;5.50;99.90;;;;;;5094656;28;20039;-80
2022/11/18 05:09:18;;;;;;;9.18;4.40;;;5.50;99.90;;;;;;5113580;28;20039;-80
2022/11/18 05:14:31;;;;;;;12.65;4.97;;;6.10;99.90;;;;;;5101908;28;20123;-80
2022/11/18 05:17:00;;;;;;;11.57;4.90;;;5.60;99.90;;;;;;5092372;28;20078;-80
2022/11/18 05:19:27;;;;;;;8.80;4.32;;;5.50;99.90;;;;;;5093066;28;20047;-80
2022/11/18 05:21:54;;;;;;;9.48;4.72;;;5.50;99.90;;;;;;5093001;28;20032;-80
2022/11/18 05:24:23;;;;;;;9.10;4.65;;;5.50;99.90;;;;;;5093130;28;20377;-80
2022/11/18 05:26:51;;;;;;;11.95;5.15;;;5.50;99.90;;;;;;5084556;28;20480;-80
2022/11/18 05:29:19;;;;;;;11.73;4.70;;;5.50;99.90;;;;;;5102315;28;20118;-80
2022/11/18 05:31:47;;;;;;;10.02;4.68;;;5.50;99.90;;;;;;5096883;28;20130;-80
2022/11/18 05:34:13;;;;;;;12.20;5.20;;;5.50;99.90;;;;;;5112589;28;20538;-80
2022/11/18 05:36:40;;;;;;;10.57;5.00;;;5.50;99.90;;;;;;5112176;28;20128;-80
2022/11/18 05:39:08;;;;;;;13.68;5.75;;;5.50;99.90;;;;;;5079510;28;20047;-80
2022/11/18 05:44:20;;;;;;;14.17;5.90;;;5.50;99.90;;;;;;5100217;28;20404;-80
2022/11/18 05:46:46;;;;;;;13.50;6.32;;;5.50;99.90;;;;;;5056586;28;20282;-80
2022/11/18 05:49:13;;;;;;;14.70;6.05;;;5.50;99.90;;;;;;5105524;28;20094;-80
2022/11/18 05:51:40;;;;;;;16.77;5.95;;;5.50;99.90;;;;;;5089365;28;20078;-80
2022/11/18 05:54:08;;;;;;;16.67;5.95;;;5.50;99.90;;;;;;5055828;28;20044;-80
2022/11/18 05:56:37;;;;;;;12.18;6.50;;;5.50;99.90;;;;;;5085708;28;20079;-80
2022/11/18 05:59:05;;;;;;;17.27;6.82;;;5.50;99.90;;;;;;5068616;28;20041;-80
2022/11/18 06:02:04;;;;;;;16.85;6.95;;;5.50;99.90;;;;;;5087447;28;20416;-80
2022/11/18 06:04:37;;;;;;;14.23;6.90;;;5.50;99.90;;;;;;5092895;28;20045;-80
2022/11/18 06:07:15;;;;;;;16.65;7.85;;;5.50;99.90;;;;;;5073676;28;20044;-80
2022/11/18 06:09:46;;;;;;;17.08;7.40;;;5.50;99.90;;;;;;5083096;28;20090;-80
2022/11/18 06:12:22;;;;;;;14.05;7.05;;;5.40;99.90;;;;;;5088708;28;20080;-80
2022/11/18 06:14:55;;;;;;;16.30;7.75;;;5.40;99.90;;;;;;5091909;28;20040;-80
2022/11/18 06:17:27;;;;;;;19.38;8.07;;;5.40;99.90;;;;;;5086120;28;20102;-80
2022/11/18 06:19:55;;;;;;;23.27;8.75;;;5.40;99.90;;;;;;5088750;28;20045;-80
2022/11/18 06:22:22;;;;;;;20.77;8.80;;;5.40;99.90;;;;;;5105244;28;20080;-80
2022/11/18 06:24:49;;;;;;;16.90;8.93;;;5.80;99.90;;;;;;5105699;28;20113;-81
2022/11/18 06:27:16;;;;;;;19.77;8.80;;;5.40;99.90;;;;;;5056530;28;20127;-80
2022/11/18 06:29:43;;;;;;;18.08;8.50;;;5.40;99.90;;;;;;5054782;28;20110;-80
2022/11/18 06:32:10;;;;;;;17.45;8.00;;;5.40;99.90;;;;;;5049755;28;20052;-80
2022/11/18 06:34:36;;;;;;;21.30;8.27;;;5.90;99.90;;;;;;5076409;28;20040;-80
2022/11/18 06:37:19;;;;;;;17.65;8.85;;;5.40;99.90;;;;;;5105706;28;20041;-80
2022/11/18 06:39:46;;;;;;;14.63;6.60;;;5.40;99.90;;;;;;5072590;28;20045;-80
2022/11/18 06:43:37;;;;;;;13.95;6.75;;;5.30;99.90;;;;;;5072205;28;20453;-80
2022/11/18 06:45:00;;;;;;;14.27;6.25;;;5.40;99.90;;;;;;5076594;28;20052;-80
2022/11/18 06:47:27;;;;;;;13.95;5.97;;;5.30;99.90;;;;;;5071175;28;20033;-80
2022/11/18 06:49:54;;;;;;;15.38;6.50;;;5.30;99.90;;;;;;5087575;28;20695;-80
2022/11/18 06:52:22;;;;;;;12.73;6.22;;;5.30;99.90;;;;;;5065339;28;20106;-80
2022/11/18 06:54:49;;;;;;;16.88;6.20;;;5.20;99.90;;;;;;5086569;28;20515;-80
2022/11/18 06:57:15;;;;;;;13.75;5.95;;;5.20;99.90;;;;;;5091960;28;20079;-80
2022/11/18 06:59:42;;;;;;;14.40;6.03;;;5.80;99.90;;;;;;5071379;28;20093;-80
2022/11/18 07:02:09;;;;;;;17.50;6.32;;;5.20;99.90;;;;;;5071771;28;20044;-80
2022/11/18 07:04:38;;;;;;;18.52;6.20;;;5.30;99.90;;;;;;5062337;28;20049;-80
2022/11/18 07:07:06;;;;;;;15.32;5.63;;;5.20;99.90;;;;;;5054789;28;20508;-80
2022/11/18 07:09:34;;;;;;;16.92;6.53;;;5.20;99.90;;;;;;5050373;28;20102;-80
2022/11/18 07:12:01;;;;;;;15.65;7.32;;;5.20;99.90;;;;;;5065705;28;20037;-80
2022/11/18 07:14:28;;;;;;;15.13;7.07;;;5.20;99.90;;;;;;5065357;28;20040;-80
2022/11/18 07:16:55;;;;;;;14.15;6.97;;;5.10;99.90;;;;;;5088482;28;20047;-80
2022/11/18 07:19:22;;;;;;;17.23;7.25;;;5.80;99.90;;;;;;5087196;28;20037;-80
2022/11/18 07:21:48;;;;;;;19.40;7.47;;;5.10;99.90;;;;;;5067379;28;20036;-80
2022/11/18 07:24:15;;;;;;;18.40;7.35;;;5.20;99.90;;;;;;5081149;28;20036;-80
2022/11/18 07:26:42;;;;;;;19.10;7.93;;;5.60;99.90;;;;;;5088304;28;20040;-80
2022/11/18 07:29:09;;;;;;;17.33;8.20;;;5.50;99.90;;;;;;5085839;28;20045;-80
2022/11/18 07:31:38;;;;;;;20.38;7.32;;;5.10;99.90;;;;;;5070199;28;20055;-79
2022/11/18 07:34:05;;;;;;;16.55;7.80;;;5.10;99.90;;;;;;5055650;28;20033;-80
2022/11/18 07:36:32;;;;;;;15.88;6.82;;;5.60;99.90;;;;;;5081633;28;20044;-81
2022/11/18 07:39:00;;;;;;;17.13;7.10;;;5.20;99.90;;;;;;5070307;28;20505;-82
2022/11/18 07:41:29;;;;;;;17.33;6.65;;;5.10;99.90;;;;;;5064768;28;20429;-83
2022/11/18 07:43:57;;;;;;;13.93;6.30;;;5.10;99.90;;;;;;5075351;28;20148;-83
2022/11/18 07:46:29;;;;;;;16.35;6.93;;;5.20;99.90;;;;;;5081573;28;20123;-84
2022/11/18 07:48:58;;;;;;;13.10;6.20;;;5.10;99.90;;;;;;5088312;28;20044;-86
2022/11/18 07:51:28;;;;;;;15.57;7.18;;;5.10;99.90;;;;;;5097957;28;20507;-84
2022/11/18 07:53:55;;;;;;;14.75;6.95;;;5.10;99.90;;;;;;5080387;28;20075;-83
2022/11/18 07:56:22;;;;;;;19.05;6.85;;;5.10;99.90;;;;;;5066230;28;20079;-83
2022/11/18 07:58:53;;;;;;;13.98;6.70;;;5.80;99.90;;;;;;5042021;28;20044;-84
2022/11/18 08:01:22;;;;;;;16.10;6.57;;;5.10;99.90;;;;;;5071107;28;20077;-83
2022/11/18 08:03:49;;;;;;;13.55;6.78;;;5.10;99.90;;;;;;5087581;28;20045;-84
2022/11/18 08:06:17;;;;;;;15.88;6.47;;;5.10;99.90;;;;;;5087685;28;20040;-83
2022/11/18 08:08:45;;;;;;;15.23;7.10;;;5.20;99.90;;;;;;5090707;28;20036;-83
2022/11/18 08:11:17;;;;;;;16.33;7.00;;;5.20;99.90;;;;;;5074461;28;20056;-84
2022/11/18 08:13:44;;;;;;;19.67;7.20;;;5.40;99.90;;;;;;5090746;28;20047;-83
2022/11/18 08:16:16;;;;;;;16.67;7.20;;;5.10;99.90;;;;;;5074672;28;20048;-83
2022/11/18 08:18:44;;;;;;;16.42;6.22;;;5.10;99.90;;;;;;5106940;28;20037;-83
2022/11/18 08:21:12;;;;;;;13.75;6.18;;;5.10;99.90;;;;;;5073973;28;20048;-83
2022/11/18 08:23:38;;;;;;;15.55;6.60;;;5.10;99.90;;;;;;5074282;28;20078;-83
2022/11/18 08:26:07;;;;;;;13.70;6.22;;;5.10;99.90;;;;;;5073999;28;20507;-83
2022/11/18 08:28:34;;;;;;;16.50;6.55;;;5.70;99.90;;;;;;5090652;28;20044;-83
2022/11/18 08:31:19;;;;;;;13.68;6.95;;;4.80;99.90;;;;;;5086752;28;20123;-83
2022/11/18 08:33:46;;;;;;;20.35;8.15;;;5.00;99.90;;;;;;5090507;28;20067;-83
2022/11/18 08:36:15;;;;;;;18.75;7.95;;;5.40;99.90;;;;;;5090800;28;20041;-83
2022/11/18 08:38:42;;;;;;;15.18;7.13;;;4.90;99.90;;;;;;5090212;28;20501;-83
2022/11/18 08:41:20;;;;;;;18.45;6.72;;;4.90;99.90;;;;;;5077713;28;20493;-83
2022/11/18 08:43:46;;;;;;;15.30;7.47;;;4.90;99.90;;;;;;5091840;28;20496;-83
2022/11/18 08:46:13;;;;;;;16.20;7.60;;;4.90;99.90;;;;;;5113955;28;20093;-83
2022/11/18 08:48:40;;;;;;;20.13;7.38;;;5.30;99.90;;;;;;5113549;28;20044;-83
2022/11/18 08:51:10;;;;;;;15.52;7.20;;;4.90;99.90;;;;;;5113671;28;20071;-83
2022/11/18 08:53:37;;;;;;;22.05;6.65;;;5.70;99.90;;;;;;5113791;28;20043;-83
2022/11/18 08:56:04;;;;;;;19.08;8.02;;;4.90;99.90;;;;;;5113770;28;20042;-83
2022/11/18 08:58:31;;;;;;;21.60;8.70;;;4.80;99.90;;;;;;5113655;28;20043;-83
2022/11/18 09:01:02;;;;;;;17.25;6.53;;;4.90;99.90;;;;;;5096937;28;20737;-83
2022/11/18 09:03:29;;;;;;;19.00;7.55;;;4.80;99.90;;;;;;5113521;28;20038;-83
2022/11/18 09:06:08;;;;;;;14.32;6.63;;;4.80;99.90;;;;;;5113675;28;20043;-83
2022/11/18 09:08:35;;;;;;;17.05;7.38;;;4.80;99.90;;;;;;5113617;28;20042;-83
2022/11/18 09:11:26;;;;;;;16.95;7.45;;;4.80;99.90;;;;;;5112485;28;20043;-83
2022/11/18 09:13:55;;;;;;;15.15;6.40;;;4.90;99.90;;;;;;5097355;28;20134;-83
2022/11/18 09:16:23;;;;;;;13.20;6.05;;;4.80;99.90;;;;;;5077004;28;20051;-84
2022/11/18 09:18:50;;;;;;;17.42;7.10;;;4.80;99.90;;;;;;5076487;28;20059;-84
2022/11/18 09:21:17;;;;;;;13.82;6.63;;;5.00;99.90;;;;;;5076447;28;20470;-83
2022/11/18 09:23:44;;;;;;;15.70;6.28;;;5.50;99.90;;;;;;5093090;28;20119;-84
2022/11/18 09:26:16;;;;;;;14.02;6.65;;;4.90;99.90;;;;;;5059828;28;20579;-83
2022/11/18 09:28:43;;;;;;;18.67;7.18;;;5.10;99.90;;;;;;5092743;28;20415;-84
2022/11/18 09:31:16;;;;;;;12.05;6.03;;;5.10;99.90;;;;;;5060121;28;20036;-83
2022/11/18 09:33:42;;;;;;;14.27;5.80;;;4.80;99.90;;;;;;5092701;28;20408;-84
2022/11/18 09:36:24;;;;;;;16.92;6.38;;;4.90;99.90;;;;;;5076141;28;20047;-84
2022/11/18 09:38:51;;;;;;;12.60;5.65;;;4.90;99.90;;;;;;5076055;28;20044;-83
2022/11/18 09:41:48;;;;;;;16.88;6.47;;;4.80;99.90;;;;;;5092831;28;20453;-83
2022/11/18 09:44:31;;;;;;;12.38;5.45;;;4.80;99.90;;;;;;5092820;28;20102;-83
2022/11/18 09:47:25;;;;;;;17.17;6.35;;;4.80;99.90;;;;;;5089260;28;20040;-83
2022/11/18 09:49:58;;;;;;;13.70;5.80;;;4.70;99.90;;;;;;5088861;28;20076;-83
2022/11/18 09:52:35;;;;;;;14.00;5.53;;;4.70;99.90;;;;;;5088825;28;20130;-83
2022/11/18 09:55:11;;;;;;;16.75;7.00;;;4.60;99.90;;;;;;5069460;28;20084;-83
2022/11/18 09:57:38;;;;;;;;;;;4.60;99.90;;;;;;5069351;28;20045;-83
2022/11/18 10:00:17;;;;;;;17.35;7.88;;;4.50;99.90;;;;;;5069279;28;19920;-84
2022/11/18 10:02:55;;;;;;;20.40;7.72;;;4.50;99.90;;;;;;5068463;28;20100;-83
2022/11/18 10:05:25;;;;;;;21.10;7.45;;;4.50;99.90;;;;;;5085914;28;20044;-83
2022/11/18 10:07:59;;;;;;;21.05;7.32;;;4.60;99.90;;;;;;5068807;28;20697;-83
2022/11/18 10:10:36;;;;;;;18.23;7.40;;;4.50;99.90;;;;;;5069233;28;20051;-83
2022/11/18 10:13:42;;;;;;;18.80;7.85;;;4.50;99.90;;;;;;5068832;28;20049;-83
2022/11/18 10:16:24;;;;;;;16.27;7.00;;;4.50;99.90;;;;;;5091094;28;20500;-83
2022/11/18 10:19:18;;;;;;;21.13;7.03;;;4.50;99.90;;;;;;5088460;28;20045;-83
2022/11/18 10:22:11;;;;;;;15.32;6.75;;;4.50;99.90;;;;;;5088505;28;20040;-83
2022/11/18 10:24:50;;;;;;;16.88;7.03;;;4.40;99.90;;;;;;5088056;28;20444;-82
2022/11/18 10:27:17;;;;;;;19.60;7.13;;;4.40;99.90;;;;;;5074249;28;20083;-84
2022/11/18 10:29:51;;;;;;;18.08;7.68;;;4.40;99.90;;;;;;5068537;28;20076;-83
2022/11/18 10:32:18;;;;;;;16.30;6.38;;;4.40;99.90;;;;;;5068832;28;20045;-83
2022/11/18 10:34:57;;;;;;;15.60;6.72;;;5.00;99.90;;;;;;5052458;28;20052;-83
2022/11/18 10:37:36;;;;;;;16.35;6.80;;;4.40;99.90;;;;;;5069063;28;20048;-84
2022/11/18 10:40:05;;;;;;;19.33;7.05;;;4.30;99.90;;;;;;5052100;28;20076;-83
2022/11/18 10:42:39;;;;;;;17.33;6.97;;;4.30;99.90;;;;;;5052049;28;20516;-83
2022/11/18 10:45:26;;;;;;;16.77;7.15;;;4.80;99.90;;;;;;5075979;28;20069;-83
2022/11/18 10:48:15;;;;;;;19.50;7.53;;;4.30;99.90;;;;;;5105460;28;20097;-83
2022/11/18 10:50:50;;;;;;;17.67;7.38;;;4.30;99.90;;;;;;5105510;28;20048;-82
2022/11/18 10:53:31;;;;;;;20.90;7.15;;;4.30;99.90;;;;;;5089061;28;20485;-83
2022/11/18 10:56:07;;;;;;;19.27;6.78;;;4.30;99.90;;;;;;5076390;28;20044;-83
2022/11/18 10:58:39;;;;;;;16.52;7.07;;;4.30;99.90;;;;;;5085320;28;20501;-84
2022/11/18 11:01:24;;;;;;;13.82;6.22;;;4.30;99.90;;;;;;5068294;28;20048;-83
2022/11/18 11:04:21;;;;;;;16.73;6.95;;;4.20;99.90;;;;;;5068357;28;20128;-83
2022/11/18 11:06:48;;;;;;;17.48;7.20;;;4.20;99.90;;;;;;5069970;28;20033;-83
2022/11/18 11:09:14;;;;;;;18.08;7.07;;;4.20;99.90;;;;;;5068483;28;20064;-83
2022/11/18 11:12:10;;;;;;;17.55;6.45;;;4.20;99.90;;;;;;5069185;28;20488;-83
2022/11/18 11:14:49;;;;;;;17.80;6.47;;;4.20;99.90;;;;;;5069748;28;20382;-83
2022/11/18 11:17:45;;;;;;;18.92;7.45;;;4.10;99.90;;;;;;5076807;28;20087;-83
2022/11/18 11:20:22;;;;;;;18.63;6.97;;;4.20;99.90;;;;;;5079171;28;20053;-83
2022/11/18 11:22:48;;;;;;;18.13;7.03;;;4.20;99.90;;;;;;5071491;28;20076;-83
2022/11/18 11:25:27;;;;;;;18.13;7.07;;;4.10;99.90;;;;;;5055620;28;20445;-83
2022/11/18 11:28:31;;;;;;;16.50;6.78;;;4.10;99.90;;;;;;5105265;28;20106;-83
2022/11/18 11:31:22;;;;;;;20.33;7.55;;;4.10;99.90;;;;;;5071492;28;20497;-83
2022/11/18 11:34:16;;;;;;;15.88;6.40;;;4.20;99.90;;;;;;5071532;28;20056;-83
2022/11/18 11:37:16;;;;;;;15.98;7.15;;;4.10;99.90;;;;;;5091720;28;20500;-83
2022/11/18 11:39:59;;;;;;;17.45;7.38;;;4.00;99.90;;;;;;5091660;28;20048;-83
2022/11/18 11:42:32;;;;;;;19.45;7.88;;;4.00;99.90;;;;;;5091728;28;20110;-83
2022/11/18 11:45:17;;;;;;;17.48;7.50;;;4.10;99.90;;;;;;5091261;28;20048;-83
2022/11/18 11:48:20;;;;;;;15.13;6.60;;;4.10;99.90;;;;;;5098961;28;20055;-83
2022/11/18 11:50:59;;;;;;;15.10;6.57;;;4.10;99.90;;;;;;5071499;28;20045;-83
2022/11/18 11:53:25;;;;;;;20.38;7.72;;;4.00;99.90;;;;;;5071553;28;20044;-83
2022/11/18 11:56:01;;;;;;;14.82;6.68;;;4.10;99.90;;;;;;5087872;28;20052;-83
2022/11/18 11:58:47;;;;;;;14.00;5.88;;;4.00;99.90;;;;;;5072033;28;20514;-84
2022/11/18 12:01:35;;;;;;;23.00;7.72;;;4.00;99.90;;;;;;5088677;28;20113;-83
2022/11/18 12:04:39;;;;;;;16.02;6.43;;;3.90;99.90;;;;;;5090904;28;20098;-83
2022/11/18 12:07:14;;;;;;;16.67;7.05;;;3.90;99.90;;;;;;5077065;28;20477;-83
2022/11/18 12:10:15;;;;;;;17.05;6.88;;;3.90;99.90;;;;;;5071977;28;20128;-83
2022/11/18 12:13:22;;;;;;;14.23;5.97;;;3.90;99.90;;;;;;5071033;28;20134;-83
2022/11/18 12:15:55;;;;;;;;;;;3.90;99.90;;;;;;5071541;28;20049;-83
2022/11/18 12:18:40;;;;;;;14.20;6.00;;;3.90;99.90;;;;;;5092443;28;20360;-83
2022/11/18 12:21:07;;;;;;;14.50;6.63;;;3.80;99.90;;;;;;5090634;28;20044;-83
2022/11/18 12:23:34;;;;;;;19.73;7.15;;;3.80;99.90;;;;;;5074637;28;20040;-83
2022/11/18 12:26:10;;;;;;;18.48;6.43;;;3.70;99.90;;;;;;5073402;28;20041;-83
2022/11/18 12:28:44;;;;;;;19.75;7.50;;;3.70;99.90;;;;;;5085908;28;20033;-83
2022/11/18 12:31:16;;;;;;;18.23;7.60;;;3.80;99.90;;;;;;5054494;28;20043;-83
2022/11/18 12:33:51;;;;;;;23.35;7.70;;;4.00;99.90;;;;;;5070603;28;20099;-83
2022/11/18 12:36:38;;;;;;;19.17;7.25;;;3.60;99.90;;;;;;5070146;28;20110;-83
2022/11/18 12:39:26;;;;;;;17.00;7.43;;;4.30;99.90;;;;;;5075645;28;20037;-83
2022/11/18 12:44:48;;;;;;;19.98;7.28;;;3.60;99.90;;;;;;5106933;28;20052;-83
2022/11/18 12:47:35;;;;;;;22.40;8.20;;;3.70;99.90;;;;;;5090066;28;20040;-83
2022/11/18 12:50:02;;;;;;;17.58;7.30;;;3.50;99.90;;;;;;5090185;28;20044;-83
2022/11/18 12:52:28;;;;;;;20.27;8.25;;;3.50;99.90;;;;;;5078951;28;20047;-83
2022/11/18 12:55:12;;;;;;;18.73;7.65;;;3.50;99.90;;;;;;5070463;28;20052;-83
2022/11/18 12:57:40;;;;;;;18.65;7.70;;;3.50;99.90;;;;;;5070232;28;20052;-83
2022/11/18 13:00:18;;;;;;;14.10;7.10;;;3.50;99.90;;;;;;5076630;28;20511;-83
2022/11/18 13:03:00;;;;;;;19.95;8.57;;;3.50;99.90;;;;;;5090035;28;20090;-84
2022/11/18 13:05:32;;;;;;;15.88;7.18;;;3.50;99.90;;;;;;5090018;28;20078;-83
2022/11/18 13:08:12;;;;;;;18.83;7.65;;;3.50;99.90;;;;;;5089742;28;20575;-83
2022/11/18 13:17:50;;;;;;;18.83;7.22;;;3.50;99.90;;;;;;5086248;28;20493;-83
2022/11/18 13:19:37;;;;;;;16.92;6.90;;;3.40;99.90;;;;;;5009991;28;20048;-83
2022/11/18 13:25:01;;;;;;;16.98;7.25;;;3.30;99.90;;;;;;5106183;28;20068;-83
2022/11/18 13:27:39;;;;;;;25.08;7.55;;;3.30;99.90;;;;;;5089336;28;20052;-83
2022/11/18 13:30:11;;;;;;;15.15;7.57;;;3.30;99.90;;;;;;5089297;28;20048;-83
2022/11/18 13:32:46;;;;;;;17.35;7.47;;;3.30;99.90;;;;;;5070003;28;20037;-83
2022/11/18 13:35:22;;;;;;;19.08;7.93;;;3.30;99.90;;;;;;5036620;28;20447;-83
2022/11/18 13:37:51;;;;;;;;;;;3.20;99.90;;;;;;5069151;28;20513;-83